Time;durP1;ratioP1;P1;durP2;ratioP2;P2;SDS_P1;SDS_P2;PMS_P1;PMS_P2;Temp;Humidity;BMP_temperature;BMP_pressure;BME280_temperature;BME280_humidity;BME280_pressure;Samples;Min_cycle;Max_cycle;Signal;HPM_P1;HPM_P2
2023/07/30 00:01:10;;;;;;;1.65;1.65;;;;;;;20.05;61.40;64073.94;5087894;28;20232;-78
2023/07/30 00:03:36;;;;;;;2.10;1.98;;;;;;;19.98;61.92;64066.66;5092496;28;20224;-79
2023/07/30 00:06:03;;;;;;;2.28;2.17;;;;;;;19.90;62.45;64063.97;5091842;28;20192;-78
2023/07/30 00:08:30;;;;;;;2.80;2.45;;;;;;;19.85;63.25;64053.06;5089721;28;20216;-78
2023/07/30 00:10:57;;;;;;;2.50;2.40;;;;;;;19.86;62.56;64051.53;5088491;28;20221;-78
2023/07/30 00:13:26;;;;;;;2.75;2.53;;;;;;;19.94;62.71;64063.00;5090434;28;20216;-79
2023/07/30 00:15:54;;;;;;;1.90;1.80;;;;;;;19.90;62.89;64058.28;5091003;28;20187;-78
2023/07/30 00:18:21;;;;;;;2.47;2.38;;;;;;;19.82;63.38;64053.06;5095812;28;20216;-78
2023/07/30 00:20:48;;;;;;;2.28;1.88;;;;;;;19.81;63.36;64051.50;5088320;28;20271;-77
2023/07/30 00:23:15;;;;;;;2.45;2.35;;;;;;;19.82;63.94;64049.94;5089915;28;20523;-80
2023/07/30 00:25:42;;;;;;;2.28;2.17;;;;;;;19.79;63.83;64054.56;5089076;28;20210;-79
2023/07/30 00:28:09;;;;;;;2.28;1.83;;;;;;;19.81;64.21;64048.91;5085304;28;20240;-77
2023/07/30 00:30:37;;;;;;;2.50;2.30;;;;;;;19.83;64.93;64051.50;5069820;28;20197;-78
2023/07/30 00:33:04;;;;;;;2.17;2.08;;;;;;;19.76;65.65;64041.63;5073314;28;20220;-78
2023/07/30 00:35:31;;;;;;;2.65;2.55;;;;;;;19.66;65.91;64033.25;5071338;28;20431;-78
2023/07/30 00:38:02;;;;;;;3.33;2.30;;;;;;;19.66;66.22;64031.19;5079324;28;20521;-77
2023/07/30 00:40:29;;;;;;;3.03;2.65;;;;;;;19.69;67.03;64036.41;5088910;28;20242;-78
2023/07/30 00:42:57;;;;;;;2.40;2.30;;;;;;;19.72;67.04;64042.63;5088213;28;20241;-78
2023/07/30 00:45:24;;;;;;;4.95;2.85;;;;;;;19.71;67.02;64039.00;5090040;28;20512;-76
2023/07/30 00:47:54;;;;;;;2.42;2.30;;;;;;;19.72;67.79;64042.09;5070573;28;20284;-78
2023/07/30 00:50:21;;;;;;;1.75;1.65;;;;;;;19.69;67.64;64036.41;5072481;28;20500;-78
2023/07/30 00:52:48;;;;;;;2.63;2.15;;;;;;;19.57;68.27;64024.38;5069550;28;20417;-78
2023/07/30 00:55:17;;;;;;;2.15;1.95;;;;;;;19.55;68.75;64019.72;5072886;28;20231;-78
2023/07/30 00:57:46;;;;;;;2.30;2.20;;;;;;;19.57;68.82;64026.47;5089221;28;20364;-79
2023/07/30 01:00:16;;;;;;;2.70;2.60;;;;;;;19.57;69.22;64026.47;5088845;28;20196;-78
2023/07/30 01:02:43;;;;;;;2.80;2.60;;;;;;;19.47;69.74;64016.53;5089796;28;20196;-77
2023/07/30 01:05:11;;;;;;;2.55;2.40;;;;;;;19.52;70.37;64016.59;5090408;28;20196;-78
2023/07/30 01:07:38;;;;;;;2.85;2.70;;;;;;;19.50;70.66;64014.50;5089783;28;20192;-79
2023/07/30 01:10:06;;;;;;;2.65;2.45;;;;;;;19.50;70.84;64019.66;5090114;28;20447;-78
2023/07/30 01:12:35;;;;;;;3.13;2.45;;;;;;;19.44;70.75;64008.78;5088636;28;20232;-78
2023/07/30 01:15:04;;;;;;;4.45;2.30;;;;;;;19.51;70.57;64018.13;5088101;28;20243;-79
2023/07/30 01:17:32;;;;;;;2.70;2.50;;;;;;;19.52;69.79;64021.75;5088717;28;20255;-77
2023/07/30 01:19:59;;;;;;;2.28;2.17;;;;;;;19.50;70.15;64017.09;5092551;28;20199;-79
2023/07/30 01:22:28;;;;;;;2.83;2.42;;;;;;;19.46;70.73;64015.50;5087728;28;20208;-77
2023/07/30 01:24:55;;;;;;;2.35;2.17;;;;;;;19.44;70.01;64008.25;5089021;28;20198;-78
2023/07/30 01:27:26;;;;;;;2.45;2.25;;;;;;;19.46;69.56;64007.75;5089054;28;20215;-77
2023/07/30 01:29:56;;;;;;;2.60;2.50;;;;;;;19.42;69.62;64011.84;5089916;28;20213;-80
2023/07/30 01:32:26;;;;;;;1.70;1.60;;;;;;;19.34;69.24;64000.41;5088934;28;20204;-78
2023/07/30 01:34:54;;;;;;;2.00;1.90;;;;;;;19.37;69.08;64006.66;5088335;28;20212;-78
2023/07/30 01:37:22;;;;;;;2.15;2.05;;;;;;;19.34;68.44;64006.09;5089395;28;20196;-78
2023/07/30 01:39:51;;;;;;;3.30;1.98;;;;;;;19.32;68.39;63995.75;5089444;28;20211;-78
2023/07/30 01:42:18;;;;;;;2.45;2.20;;;;;;;19.33;68.80;64001.94;5087340;28;20200;-78
2023/07/30 01:44:45;;;;;;;2.30;2.10;;;;;;;19.34;68.03;63998.34;5091279;28;20440;-78
2023/07/30 01:47:13;;;;;;;2.85;1.67;;;;;;;19.38;68.44;64005.09;5090782;28;20203;-78
2023/07/30 01:49:40;;;;;;;1.70;1.70;;;;;;;19.34;68.53;64003.00;5085747;28;20234;-78
2023/07/30 01:52:07;;;;;;;2.15;2.05;;;;;;;19.30;68.90;63996.22;5089822;28;20290;-79
2023/07/30 01:54:35;;;;;;;1.95;1.85;;;;;;;19.29;68.32;63995.19;5087289;28;20259;-78
2023/07/30 01:57:03;;;;;;;2.05;1.90;;;;;;;19.19;69.04;63982.69;5087827;28;20237;-78
2023/07/30 01:59:30;;;;;;;2.20;2.10;;;;;;;19.23;69.58;63992.03;5088044;28;20280;-77
2023/07/30 02:01:57;;;;;;;2.88;2.42;;;;;;;19.19;69.82;63984.75;5088093;28;20196;-79
2023/07/30 02:04:24;;;;;;;2.50;2.40;;;;;;;19.17;69.80;63977.50;5087094;28;20208;-78
2023/07/30 02:06:51;;;;;;;2.22;2.13;;;;;;;19.14;70.14;63979.53;5088245;28;20200;-77
2023/07/30 02:09:18;;;;;;;2.58;2.35;;;;;;;19.12;70.84;63980.03;5085392;28;20532;-79
2023/07/30 02:11:45;;;;;;;3.45;2.40;;;;;;;19.03;71.05;63966.00;5087883;28;20259;-78
2023/07/30 02:14:13;;;;;;;2.00;1.90;;;;;;;19.04;71.08;63969.09;5091202;28;20345;-78
2023/07/30 02:16:41;;;;;;;3.55;2.47;;;;;;;18.95;71.01;63955.06;5088053;28;20204;-78
2023/07/30 02:19:09;;;;;;;2.42;1.92;;;;;;;19.04;70.56;63969.63;5087516;28;20228;-79
2023/07/30 02:21:38;;;;;;;2.25;2.15;;;;;;;18.99;70.31;63959.25;5087901;28;20492;-79
2023/07/30 02:24:09;;;;;;;2.20;2.10;;;;;;;18.99;70.86;63959.25;5087385;28;20390;-78
2023/07/30 02:26:36;;;;;;;2.70;2.50;;;;;;;18.97;71.08;63959.75;5086861;28;20192;-78
2023/07/30 02:29:03;;;;;;;2.65;2.45;;;;;;;18.98;71.82;63962.84;5089208;28;20406;-78
2023/07/30 02:31:32;;;;;;;2.75;2.30;;;;;;;19.00;72.44;63968.03;5088172;28;20192;-77
2023/07/30 02:33:59;;;;;;;2.92;2.13;;;;;;;18.97;72.78;63964.91;5087984;28;20283;-78
2023/07/30 02:36:26;;;;;;;2.50;2.35;;;;;;;18.93;72.30;63958.16;5085460;28;20548;-78
2023/07/30 02:38:53;;;;;;;2.05;1.95;;;;;;;18.88;72.22;63950.34;5086818;28;20216;-79
2023/07/30 02:41:20;;;;;;;2.55;2.38;;;;;;;18.87;73.25;63949.31;5087693;28;20215;-77
2023/07/30 02:43:47;;;;;;;2.63;2.42;;;;;;;18.86;73.35;63947.75;5087160;28;20224;-79
2023/07/30 02:46:14;;;;;;;2.40;2.22;;;;;;;18.83;74.07;63945.16;5086593;28;20196;-78
2023/07/30 02:48:43;;;;;;;2.67;2.47;;;;;;;18.79;74.88;63941.00;5087851;28;20215;-77
2023/07/30 02:51:10;;;;;;;2.50;2.40;;;;;;;18.80;74.94;63946.66;5086901;28;20192;-79
2023/07/30 02:53:37;;;;;;;2.58;2.47;;;;;;;18.69;75.34;63933.13;5084697;28;20286;-78
2023/07/30 02:56:05;;;;;;;2.28;2.17;;;;;;;18.74;74.65;63938.34;5087314;28;20227;-77
2023/07/30 02:58:32;;;;;;;2.08;1.98;;;;;;;18.72;74.94;63943.50;5088765;28;20254;-77
2023/07/30 03:01:07;;;;;;;2.05;1.95;;;;;;;18.69;75.93;63935.22;5086052;28;20218;-78
2023/07/30 03:03:33;;;;;;;2.20;2.10;;;;;;;18.62;76.42;63920.69;5085941;28;20638;-79
2023/07/30 03:06:03;;;;;;;2.10;2.00;;;;;;;18.57;76.42;63922.69;5088389;28;20208;-78
2023/07/30 03:08:29;;;;;;;2.42;2.33;;;;;;;18.54;75.84;63914.94;5086095;28;20239;-78
2023/07/30 03:10:59;;;;;;;2.13;2.03;;;;;;;18.53;75.98;63913.91;5082894;28;20212;-77
2023/07/30 03:13:27;;;;;;;5.00;2.72;;;;;;;18.52;75.66;63920.56;5068837;28;20221;-78
2023/07/30 03:15:54;;;;;;;2.67;2.47;;;;;;;18.58;74.57;63918.56;5067418;28;20228;-79
2023/07/30 03:18:21;;;;;;;2.40;2.20;;;;;;;18.64;74.97;63924.84;5065962;28;20275;-78
2023/07/30 03:20:48;;;;;;;2.60;2.40;;;;;;;18.60;74.89;63921.19;5077905;28;20211;-78
2023/07/30 03:23:17;;;;;;;2.60;2.40;;;;;;;18.61;75.11;63927.38;5094800;28;20219;-77
2023/07/30 03:25:44;;;;;;;2.33;2.22;;;;;;;18.63;75.08;63926.88;5092783;28;20195;-79
2023/07/30 03:28:11;;;;;;;2.53;2.30;;;;;;;18.67;74.25;63928.50;5094285;28;20220;-78
2023/07/30 03:30:38;;;;;;;2.45;2.00;;;;;;;18.65;74.98;63928.44;5092420;28;20254;-78
2023/07/30 03:33:05;;;;;;;2.30;2.20;;;;;;;18.64;74.93;63930.00;5093128;28;20212;-78
2023/07/30 03:35:32;;;;;;;2.63;2.20;;;;;;;18.60;75.25;63923.78;5094904;28;20251;-78
2023/07/30 03:37:59;;;;;;;2.33;2.22;;;;;;;18.68;75.10;63929.53;5093123;28;20223;-77
2023/07/30 03:40:29;;;;;;;2.13;2.03;;;;;;;18.59;75.89;63919.59;5094082;28;20267;-79
2023/07/30 03:42:56;;;;;;;2.90;2.70;;;;;;;18.70;75.87;63929.03;5095039;28;20212;-77
2023/07/30 03:45:23;;;;;;;2.40;2.30;;;;;;;18.74;75.72;63933.19;5093530;28;20233;-78
2023/07/30 03:47:50;;;;;;;4.30;2.00;;;;;;;18.82;74.80;63946.69;5091366;28;20566;-77
2023/07/30 03:50:17;;;;;;;2.70;2.60;;;;;;;18.89;74.83;63953.47;5093635;28;20199;-78
2023/07/30 03:52:44;;;;;;;2.45;2.35;;;;;;;18.96;74.19;63961.28;5096861;28;20196;-78
2023/07/30 03:55:11;;;;;;;1.88;1.83;;;;;;;18.95;74.03;63962.28;5093678;28;20321;-78
2023/07/30 03:57:39;;;;;;;2.70;2.58;;;;;;;19.09;74.77;63972.25;5089786;28;20295;-78
2023/07/30 04:00:08;;;;;;;2.72;2.53;;;;;;;19.18;73.46;63983.69;5092285;28;20223;-78
2023/07/30 04:02:35;;;;;;;3.63;2.25;;;;;;;19.27;73.45;63993.09;5093288;28;20377;-77
2023/07/30 04:05:03;;;;;;;2.38;2.28;;;;;;;19.38;72.81;64007.69;5091239;28;20218;-79
2023/07/30 04:07:30;;;;;;;2.10;2.00;;;;;;;19.49;73.04;64018.63;5097398;28;20238;-80
2023/07/30 04:09:57;;;;;;;2.72;2.50;;;;;;;19.61;73.15;64025.44;5094864;28;20375;-78
2023/07/30 04:12:24;;;;;;;2.17;2.08;;;;;;;19.78;72.86;64043.72;5092768;28;20230;-77
2023/07/30 04:14:53;;;;;;;2.13;2.03;;;;;;;19.90;73.48;64061.41;5090184;28;20203;-78
2023/07/30 04:17:20;;;;;;;2.03;1.92;;;;;;;19.92;72.97;64063.47;5093625;28;20192;-78
2023/07/30 04:19:47;;;;;;;2.40;2.30;;;;;;;20.02;72.01;64068.25;5092578;28;20238;-79
2023/07/30 04:22:14;;;;;;;2.47;2.38;;;;;;;20.15;71.31;64084.38;5096321;28;20192;-78
2023/07/30 04:24:41;;;;;;;2.60;2.40;;;;;;;20.27;70.95;64094.88;5076308;28;20283;-79
2023/07/30 04:27:08;;;;;;;2.45;2.30;;;;;;;20.41;71.62;64111.53;5075217;28;20195;-78
2023/07/30 04:29:35;;;;;;;2.22;2.13;;;;;;;20.53;74.61;64124.59;5092957;28;20215;-78
2023/07/30 04:32:04;;;;;;;4.80;2.40;;;;;;;20.50;80.01;64121.44;5091216;28;20192;-77
2023/07/30 04:34:31;;;;;;;2.97;2.78;;;;;;;20.46;76.26;64114.69;5084750;28;20219;-77
2023/07/30 04:36:58;;;;;;;2.95;2.85;;;;;;;20.54;75.91;64120.44;5092415;28;20422;-78
2023/07/30 04:39:25;;;;;;;2.63;2.42;;;;;;;20.68;75.51;64137.13;5088582;28;20528;-77
2023/07/30 04:41:52;;;;;;;3.95;2.63;;;;;;;20.84;77.67;64156.41;5087495;28;20497;-78
2023/07/30 04:44:20;;;;;;;2.90;2.72;;;;;;;20.88;77.71;64163.19;5088278;28;20279;-77
2023/07/30 04:46:47;;;;;;;2.53;2.33;;;;;;;20.77;75.90;64149.13;5089837;28;20232;-77
2023/07/30 04:49:15;;;;;;;3.65;2.80;;;;;;;20.75;74.29;64149.09;5088692;28;20222;-78
2023/07/30 04:51:42;;;;;;;3.03;2.80;;;;;;;20.75;71.62;64149.59;5088470;28;20497;-77
2023/07/30 04:54:10;;;;;;;3.63;2.85;;;;;;;20.67;72.42;64144.38;5092052;28;20240;-77
2023/07/30 04:56:40;;;;;;;3.38;2.80;;;;;;;20.78;72.69;64147.56;5089417;28;20270;-77
2023/07/30 04:59:07;;;;;;;5.22;2.92;;;;;;;20.76;74.40;64150.66;5089440;28;20212;-76
2023/07/30 05:01:34;;;;;;;6.28;3.17;;;;;;;20.68;73.97;64142.81;5086877;28;20227;-78
2023/07/30 05:04:01;;;;;;;4.50;3.15;;;;;;;20.65;72.88;64139.19;5088024;28;20239;-78
2023/07/30 05:06:30;;;;;;;4.00;3.20;;;;;;;20.88;72.54;64160.06;5088671;28;20200;-78
2023/07/30 05:08:57;;;;;;;5.53;3.72;;;;;;;20.87;73.95;64156.97;5089402;28;20231;-77
2023/07/30 05:11:24;;;;;;;9.43;3.97;;;;;;;20.96;75.02;64171.00;5088364;28;20230;-78
2023/07/30 05:13:51;;;;;;;4.47;3.65;;;;;;;20.96;75.23;64163.25;5088803;28;20602;-77
2023/07/30 05:16:18;;;;;;;8.85;3.40;;;;;;;21.19;75.17;64192.47;5088799;28;20441;-77
2023/07/30 05:18:45;;;;;;;3.63;3.40;;;;;;;21.30;72.27;64203.94;5087556;28;20227;-76
2023/07/30 05:21:12;;;;;;;6.18;3.28;;;;;;;21.39;72.43;64208.16;5088717;28;20196;-76
2023/07/30 05:23:41;;;;;;;4.28;3.47;;;;;;;21.32;71.72;64201.38;5091684;28;20222;-78
2023/07/30 05:26:09;;;;;;;3.88;3.17;;;;;;;21.33;70.98;64202.41;5089533;28;20208;-78
2023/07/30 05:28:37;;;;;;;3.13;2.92;;;;;;;21.40;70.31;64217.50;5086806;28;20238;-77
2023/07/30 05:31:04;;;;;;;3.67;3.42;;;;;;;21.53;69.99;64225.91;5087503;28;20214;-79
2023/07/30 05:33:31;;;;;;;4.80;3.45;;;;;;;21.61;67.41;64239.44;5088178;28;20212;-77
2023/07/30 05:35:58;;;;;;;3.28;3.05;;;;;;;21.80;69.02;64253.59;5088150;28;20243;-78
2023/07/30 05:38:25;;;;;;;3.20;3.00;;;;;;;22.03;63.02;64277.13;5088671;28;20222;-78
2023/07/30 05:40:53;;;;;;;3.80;3.50;;;;;;;22.08;61.78;64282.34;5092755;28;20207;-77
2023/07/30 05:43:20;;;;;;;3.45;2.95;;;;;;;22.13;62.55;64290.16;5089514;28;20215;-77
2023/07/30 05:45:47;;;;;;;4.07;3.08;;;;;;;22.20;63.58;64300.06;5086662;28;20203;-79
2023/07/30 05:48:14;;;;;;;3.30;3.00;;;;;;;22.33;63.82;64311.06;5088524;28;20216;-78
2023/07/30 05:50:41;;;;;;;3.22;3.00;;;;;;;22.56;61.88;64338.25;5088270;28;20420;-77
2023/07/30 05:53:08;;;;;;;3.10;2.90;;;;;;;22.66;60.72;64340.38;5091631;28;20243;-78
2023/07/30 05:55:35;;;;;;;3.40;3.20;;;;;;;22.87;60.60;64370.66;5086999;28;20269;-78
2023/07/30 05:58:04;;;;;;;3.75;3.17;;;;;;;23.05;61.08;64381.19;5087342;28;20278;-77
2023/07/30 06:00:31;;;;;;;3.13;2.97;;;;;;;23.03;60.18;64384.28;5086675;28;20242;-77
2023/07/30 06:02:58;;;;;;;3.10;2.90;;;;;;;23.17;59.57;64398.94;5085674;28;20226;-78
2023/07/30 06:05:25;;;;;;;3.22;3.03;;;;;;;23.26;59.57;64410.94;5067963;28;20205;-78
2023/07/30 06:07:52;;;;;;;2.75;2.55;;;;;;;23.30;57.08;64406.81;5070601;28;20235;-77
2023/07/30 06:10:19;;;;;;;3.22;2.92;;;;;;;23.13;59.44;64394.75;5069827;28;20230;-77
2023/07/30 06:12:46;;;;;;;4.75;3.30;;;;;;;23.01;60.61;64379.59;5072294;28;20226;-77
2023/07/30 06:15:14;;;;;;;5.15;3.28;;;;;;;23.04;60.29;64387.91;5086468;28;20264;-77
2023/07/30 06:17:41;;;;;;;3.03;2.83;;;;;;;23.06;60.08;64384.28;5085918;28;20501;-77
2023/07/30 06:20:10;;;;;;;10.90;3.10;;;;;;;22.89;59.02;64370.16;5086228;28;20207;-77
2023/07/30 06:22:37;;;;;;;2.92;2.80;;;;;;;22.98;60.96;64379.06;5085430;28;20196;-77
2023/07/30 06:25:06;;;;;;;3.30;3.10;;;;;;;23.17;61.27;64395.81;5087992;28;20200;-78
2023/07/30 06:27:33;;;;;;;5.68;3.30;;;;;;;23.29;60.46;64413.56;5085939;28;20216;-80
2023/07/30 06:30:00;;;;;;;3.25;3.05;;;;;;;23.40;59.15;64427.69;5087159;28;20195;-77
2023/07/30 06:32:28;;;;;;;3.60;3.30;;;;;;;23.33;59.69;64417.75;5085421;28;20370;-77
2023/07/30 06:34:55;;;;;;;3.38;3.13;;;;;;;23.45;60.02;64428.22;5086657;28;20195;-78
2023/07/30 06:37:22;;;;;;;2.65;2.55;;;;;;;23.42;59.43;64425.09;5088729;28;20231;-78
2023/07/30 06:39:50;;;;;;;2.92;2.75;;;;;;;23.44;60.72;64421.97;5089837;28;20216;-78
2023/07/30 06:42:17;;;;;;;3.20;2.97;;;;;;;23.62;59.45;64443.44;5086922;28;20181;-77
2023/07/30 06:44:44;;;;;;;2.88;2.78;;;;;;;23.76;59.52;64457.56;5087271;28;20223;-78
2023/07/30 06:47:11;;;;;;;3.75;3.45;;;;;;;23.86;58.09;64471.13;5087842;28;20203;-78
2023/07/30 06:49:39;;;;;;;4.88;3.15;;;;;;;23.86;58.35;64478.94;5086315;28;20275;-78
2023/07/30 06:52:07;;;;;;;3.28;3.08;;;;;;;23.92;58.10;64477.41;5086891;28;20196;-77
2023/07/30 06:54:34;;;;;;;2.88;2.78;;;;;;;24.05;56.66;64492.59;5089926;28;20574;-77
2023/07/30 06:57:01;;;;;;;3.20;3.05;;;;;;;24.22;56.91;64510.38;5086106;28;20539;-76
2023/07/30 06:59:28;;;;;;;2.92;2.80;;;;;;;24.34;56.73;64522.94;5084024;28;20230;-78
2023/07/30 07:01:55;;;;;;;3.17;3.05;;;;;;;24.53;54.67;64540.78;5087639;28;20184;-77
2023/07/30 07:04:22;;;;;;;3.35;3.15;;;;;;;24.54;54.87;64544.41;5085876;28;20211;-77
2023/07/30 07:06:50;;;;;;;3.53;3.13;;;;;;;24.71;53.59;64562.22;5087886;28;20196;-77
2023/07/30 07:09:17;;;;;;;2.90;2.80;;;;;;;24.76;52.75;64561.75;5086261;28;20294;-76
2023/07/30 07:11:45;;;;;;;2.83;2.72;;;;;;;24.63;52.15;64550.69;5086031;28;20196;-77
2023/07/30 07:14:12;;;;;;;3.45;3.00;;;;;;;24.69;52.30;64554.94;5085851;28;20215;-78
2023/07/30 07:16:40;;;;;;;2.75;2.55;;;;;;;24.66;51.93;64554.38;5084877;28;20234;-78
2023/07/30 07:19:06;;;;;;;3.13;2.67;;;;;;;24.88;52.39;64576.91;5086220;28;20236;-78
2023/07/30 07:21:34;;;;;;;3.17;2.70;;;;;;;25.08;51.66;64600.47;5088633;28;20204;-77
2023/07/30 07:24:02;;;;;;;3.63;3.25;;;;;;;25.06;50.53;64596.28;5085892;28;20211;-77
2023/07/30 07:26:29;;;;;;;3.15;2.95;;;;;;;25.08;51.20;64601.00;5086734;28;20234;-78
2023/07/30 07:28:57;;;;;;;2.60;2.50;;;;;;;25.25;50.93;64620.38;5086360;28;20246;-78
2023/07/30 07:31:23;;;;;;;3.20;3.00;;;;;;;25.27;50.27;64620.38;5086053;28;20203;-78
2023/07/30 07:33:51;;;;;;;3.05;2.88;;;;;;;25.39;50.00;64632.44;5084432;28;20216;-78
2023/07/30 07:36:18;;;;;;;5.30;3.40;;;;;;;25.47;51.14;64640.81;5089846;28;20228;-78
2023/07/30 07:38:45;;;;;;;3.03;2.92;;;;;;;25.74;50.54;64663.91;5085798;28;20211;-78
2023/07/30 07:41:17;;;;;;;3.75;3.25;;;;;;;25.90;49.69;64686.41;5086239;28;20199;-77
2023/07/30 07:43:45;;;;;;;3.55;3.25;;;;;;;25.96;49.12;64692.16;5084948;28;20254;-78
2023/07/30 07:46:14;;;;;;;3.28;3.08;;;;;;;26.18;48.59;64713.16;5085711;28;20268;-78
2023/07/30 07:48:44;;;;;;;3.75;3.38;;;;;;;26.15;48.43;64709.50;5085630;28;20227;-78
2023/07/30 07:51:12;;;;;;;3.42;3.22;;;;;;;26.06;48.04;64697.97;5088940;28;20515;-79
2023/07/30 07:53:40;;;;;;;3.70;3.50;;;;;;;26.06;48.45;64700.06;5083752;28;20247;-79
2023/07/30 07:56:07;;;;;;;3.55;3.35;;;;;;;26.12;47.71;64703.75;5085651;28;20266;-77
2023/07/30 07:58:36;;;;;;;3.92;3.55;;;;;;;26.13;48.82;64710.53;5086351;28;20253;-79
2023/07/30 08:01:04;;;;;;;4.38;3.75;;;;;;;26.37;48.10;64734.66;5083763;28;20207;-78
2023/07/30 08:03:31;;;;;;;3.30;3.10;;;;;;;26.41;46.45;64736.22;5085588;28;20238;-78
2023/07/30 08:05:58;;;;;;;3.55;3.35;;;;;;;26.65;45.85;64761.91;5088881;28;20196;-77
2023/07/30 08:08:26;;;;;;;4.00;3.60;;;;;;;26.69;46.44;64768.75;5088468;28;20492;-77
2023/07/30 08:10:54;;;;;;;3.95;3.63;;;;;;;26.93;46.87;64793.94;5088410;28;20481;-77
2023/07/30 08:13:21;;;;;;;8.02;3.90;;;;;;;27.08;46.36;64809.13;5089706;28;20279;-78
2023/07/30 08:15:50;;;;;;;4.82;3.15;;;;;;;27.21;45.11;64820.66;5089392;28;20227;-77
2023/07/30 08:18:17;;;;;;;5.72;3.33;;;;;;;27.24;43.22;64820.69;5090100;28;20247;-78
2023/07/30 08:20:44;;;;;;;3.25;2.92;;;;;;;27.24;42.86;64829.06;5091635;28;20485;-77
2023/07/30 08:23:11;;;;;;;3.35;3.05;;;;;;;27.32;43.76;64828.59;5089877;28;20257;-78
2023/07/30 08:25:38;;;;;;;3.20;2.88;;;;;;;27.47;44.07;64850.09;5090064;28;20200;-78
2023/07/30 08:28:06;;;;;;;3.08;2.88;;;;;;;27.66;43.39;64866.88;5085855;28;20224;-78
2023/07/30 08:30:33;;;;;;;3.95;2.88;;;;;;;27.66;41.77;64869.50;5071021;28;20197;-78
2023/07/30 08:33:01;;;;;;;5.05;3.00;;;;;;;27.61;42.72;64861.63;5086598;28;20258;-77
2023/07/30 08:35:29;;;;;;;3.05;2.90;;;;;;;27.73;41.32;64874.75;5088967;28;20191;-76
2023/07/30 08:37:56;;;;;;;3.08;2.75;;;;;;;27.77;41.55;64878.94;5087108;28;20267;-80
2023/07/30 08:40:24;;;;;;;3.17;2.97;;;;;;;27.59;40.98;64862.69;5089077;28;20210;-77
2023/07/30 08:42:52;;;;;;;3.45;3.20;;;;;;;27.64;40.47;64867.91;5089001;28;20451;-79
2023/07/30 08:45:19;;;;;;;3.53;3.35;;;;;;;27.74;39.84;64875.25;5091417;28;20192;-76
2023/07/30 08:47:47;;;;;;;2.88;2.63;;;;;;;27.82;40.07;64891.53;5087586;28;20231;-77
2023/07/30 08:50:16;;;;;;;3.45;3.20;;;;;;;27.76;40.93;64883.13;5088973;28;20227;-77
2023/07/30 08:52:44;;;;;;;2.90;2.80;;;;;;;27.65;39.60;64868.97;5087555;28;20257;-77
2023/07/30 08:55:11;;;;;;;3.88;3.55;;;;;;;27.79;39.86;64883.13;5086377;28;20242;-77
2023/07/30 08:57:39;;;;;;;3.10;2.75;;;;;;;28.00;39.40;64907.81;5088850;28;20231;-79
2023/07/30 09:00:09;;;;;;;2.65;2.55;;;;;;;28.11;38.67;64922.00;5088548;28;20196;-78
2023/07/30 09:02:48;;;;;;;3.30;3.10;;;;;;;28.25;37.93;64928.84;5091681;28;20196;-77
2023/07/30 09:05:20;;;;;;;3.40;3.10;;;;;;;28.39;38.28;64943.50;5087832;28;20389;-79
2023/07/30 09:07:47;;;;;;;2.63;2.42;;;;;;;28.59;38.61;64969.25;5089586;28;20220;-79
2023/07/30 09:10:15;;;;;;;3.15;2.95;;;;;;;28.47;38.07;64954.53;5088567;28;20203;-77
2023/07/30 09:12:43;;;;;;;3.00;2.80;;;;;;;28.30;38.02;64929.34;5087805;28;20191;-78
2023/07/30 09:15:11;;;;;;;4.20;2.97;;;;;;;28.25;37.85;64931.97;5088979;28;20203;-78
2023/07/30 09:17:38;;;;;;;3.13;2.75;;;;;;;28.23;38.30;64929.84;5089533;28;20224;-79
2023/07/30 09:20:07;;;;;;;6.07;3.13;;;;;;;28.55;37.76;64960.34;5088369;28;20322;-80
2023/07/30 09:22:39;;;;;;;3.60;3.40;;;;;;;28.63;36.98;64970.84;5085316;28;20210;-79
2023/07/30 09:25:08;;;;;;;3.53;3.20;;;;;;;28.69;37.17;64977.66;5090391;28;20267;-79
2023/07/30 09:27:35;;;;;;;3.63;3.15;;;;;;;28.81;36.93;64992.38;5089262;28;20207;-78
2023/07/30 09:30:05;;;;;;;3.35;3.05;;;;;;;28.86;36.95;64998.16;5091065;28;20234;-79
2023/07/30 09:32:34;;;;;;;3.50;3.28;;;;;;;29.06;36.17;65019.16;5086329;28;20204;-78
2023/07/30 09:35:06;;;;;;;3.95;3.67;;;;;;;29.21;36.21;65026.53;5088976;28;20402;-77
2023/07/30 09:37:37;;;;;;;3.70;3.47;;;;;;;29.17;35.40;65024.97;5087763;28;20212;-77
2023/07/30 09:40:05;;;;;;;3.88;3.58;;;;;;;29.04;35.10;65011.81;5088186;28;20204;-77
2023/07/30 09:42:35;;;;;;;3.45;3.15;;;;;;;28.87;35.38;64999.19;5088585;28;20392;-81
2023/07/30 09:45:02;;;;;;;3.65;3.40;;;;;;;29.04;35.00;65014.44;5092915;28;20200;-79
2023/07/30 09:47:31;;;;;;;3.80;3.42;;;;;;;28.85;35.07;64993.94;5088009;28;20259;-78
2023/07/30 09:49:58;;;;;;;3.58;3.38;;;;;;;28.97;35.16;65004.47;5079468;28;20200;-78
2023/07/30 09:52:25;;;;;;;4.70;3.60;;;;;;;29.07;34.22;65014.97;5067468;28;20193;-77
2023/07/30 09:54:54;;;;;;;3.40;3.10;;;;;;;29.09;33.63;65021.78;5068893;28;20200;-78
2023/07/30 09:57:21;;;;;;;3.22;3.13;;;;;;;29.18;34.08;65023.41;5070918;28;20288;-80
2023/07/30 09:59:49;;;;;;;4.00;3.70;;;;;;;29.35;33.77;65047.03;5081928;28;20215;-77
2023/07/30 10:02:17;;;;;;;3.78;3.50;;;;;;;29.33;34.11;65044.41;5088892;28;20211;-80
2023/07/30 10:04:49;;;;;;;3.33;3.15;;;;;;;29.46;33.67;65055.41;5090340;28;20208;-77
2023/07/30 10:07:21;;;;;;;3.20;3.00;;;;;;;29.40;34.21;65046.50;5086565;28;20219;-80
2023/07/30 10:09:51;;;;;;;3.25;3.05;;;;;;;29.41;34.05;65050.69;5087377;28;20230;-77
2023/07/30 10:12:25;;;;;;;3.45;3.25;;;;;;;29.56;34.30;65062.78;5091753;28;20200;-79
2023/07/30 10:14:52;;;;;;;4.43;3.95;;;;;;;29.62;34.39;65072.25;5090655;28;20200;-77
2023/07/30 10:17:19;;;;;;;3.22;3.03;;;;;;;29.65;34.03;65074.88;5086331;28;20254;-78
2023/07/30 10:19:49;;;;;;;3.42;3.22;;;;;;;29.66;33.83;65076.44;5087483;28;20249;-77
2023/07/30 10:22:25;;;;;;;3.58;3.38;;;;;;;29.61;33.64;65073.28;5089374;28;20429;-78
2023/07/30 10:24:59;;;;;;;3.67;3.45;;;;;;;29.63;33.99;65078.03;5089138;28;20192;-78
2023/07/30 10:27:38;;;;;;;2.97;2.80;;;;;;;29.76;35.28;65092.22;5090114;28;20206;-79
2023/07/30 10:30:12;;;;;;;3.33;3.13;;;;;;;29.78;33.57;65091.72;5087796;28;20196;-77
2023/07/30 10:32:40;;;;;;;4.05;3.65;;;;;;;29.73;33.30;65086.47;5087493;28;20251;-77
2023/07/30 10:35:08;;;;;;;3.72;3.40;;;;;;;29.71;33.41;65084.34;5086021;28;20243;-79
2023/07/30 10:37:36;;;;;;;3.38;3.17;;;;;;;29.58;33.97;65067.53;5086950;28;20234;-78
2023/07/30 10:40:18;;;;;;;3.78;3.58;;;;;;;29.70;34.30;65083.28;5090010;28;20207;-78
2023/07/30 10:42:46;;;;;;;3.58;3.17;;;;;;;29.89;35.79;65105.88;5087734;28;20184;-78
2023/07/30 10:45:13;;;;;;;3.90;3.70;;;;;;;30.12;36.82;65126.91;5085671;28;20493;-79
2023/07/30 10:47:45;;;;;;;4.75;3.72;;;;;;;30.20;33.80;65135.84;5088091;28;20200;-76
2023/07/30 10:50:13;;;;;;;3.30;3.13;;;;;;;30.07;33.28;65119.03;5086578;28;20196;-77
2023/07/30 10:52:40;;;;;;;3.05;2.95;;;;;;;29.70;34.65;65085.41;5087286;28;21295;-78
2023/07/30 10:55:08;;;;;;;4.00;3.70;;;;;;;29.76;36.51;65086.44;5090240;28;20198;-78
2023/07/30 10:57:35;;;;;;;3.97;3.67;;;;;;;29.88;35.81;65099.59;5086791;28;20220;-80
2023/07/30 11:00:06;;;;;;;5.88;3.55;;;;;;;29.97;33.92;65111.69;5088114;28;20341;-79
2023/07/30 11:02:33;;;;;;;4.90;3.58;;;;;;;30.14;34.07;65131.66;5086091;28;20192;-80
2023/07/30 11:05:12;;;;;;;3.83;3.63;;;;;;;30.20;33.42;65141.09;5088225;28;20200;-79
2023/07/30 11:07:39;;;;;;;5.82;3.70;;;;;;;30.32;32.69;65151.13;5090064;28;20200;-79
2023/07/30 11:10:07;;;;;;;4.03;3.72;;;;;;;30.54;33.53;65169.00;5089307;28;20219;-80
2023/07/30 11:12:34;;;;;;;3.72;3.42;;;;;;;30.75;33.49;65190.03;5086133;28;20200;-78
2023/07/30 11:15:04;;;;;;;3.22;3.03;;;;;;;30.87;31.77;65205.84;5088172;28;20196;-77
2023/07/30 11:17:31;;;;;;;4.43;3.63;;;;;;;30.76;34.21;65196.88;5086750;28;20241;-78
2023/07/30 11:19:59;;;;;;;3.72;3.53;;;;;;;31.06;32.36;65225.28;5085758;28;20502;-80
2023/07/30 11:22:32;;;;;;;4.22;3.80;;;;;;;31.22;32.67;65242.66;5071912;28;20396;-80
2023/07/30 11:25:01;;;;;;;3.38;3.15;;;;;;;31.08;32.31;65230.53;5069169;28;20196;-78
2023/07/30 11:27:28;;;;;;;3.72;3.53;;;;;;;31.12;31.80;65228.97;5068281;28;20246;-79
2023/07/30 11:29:56;;;;;;;3.45;3.22;;;;;;;31.11;32.11;65235.81;5074290;28;20200;-78
2023/07/30 11:32:25;;;;;;;4.03;3.17;;;;;;;31.10;32.55;65229.50;5087518;28;20234;-80
2023/07/30 11:34:53;;;;;;;4.40;4.00;;;;;;;31.25;34.33;65245.28;5086634;28;20262;-78
2023/07/30 11:37:21;;;;;;;3.40;3.20;;;;;;;31.50;32.61;65269.50;5092039;28;20255;-79